sensor_id;sensor_type;location;lat;lon;timestamp;pressure;altitude;pressure_sealevel;temperature;humidity
61674;BME280;47573;43.832;5.974;2023-09-12T00:01:43;95150.75;;;31.11;42.34
61674;BME280;47573;43.832;5.974;2023-09-12T00:08:24;95158.13;;;31.16;42.02
61674;BME280;47573;43.832;5.974;2023-09-12T00:15:07;95157.31;;;31.15;42.14
61674;BME280;47573;43.832;5.974;2023-09-12T00:21:47;95152.81;;;31.19;42.50
61674;BME280;47573;43.832;5.974;2023-09-12T00:28:28;95162.22;;;31.18;42.60
61674;BME280;47573;43.832;5.974;2023-09-12T00:35:09;95163.28;;;31.22;42.52
61674;BME280;47573;43.832;5.974;2023-09-12T00:41:50;95146.72;;;31.22;42.60
61674;BME280;47573;43.832;5.974;2023-09-12T00:48:31;95138.44;;;31.22;42.31
61674;BME280;47573;43.832;5.974;2023-09-12T00:55:13;95135.91;;;31.26;42.69
61674;BME280;47573;43.832;5.974;2023-09-12T01:01:54;95135.06;;;31.25;42.72
61674;BME280;47573;43.832;5.974;2023-09-12T01:08:35;95138.34;;;31.27;42.74
61674;BME280;47573;43.832;5.974;2023-09-12T01:15:17;95128.97;;;31.28;42.57
61674;BME280;47573;43.832;5.974;2023-09-12T01:22:19;95125.06;;;31.29;42.53
61674;BME280;47573;43.832;5.974;2023-09-12T01:29:03;95116.78;;;31.29;42.48
61674;BME280;47573;43.832;5.974;2023-09-12T01:35:47;95133.88;;;31.31;42.82
61674;BME280;47573;43.832;5.974;2023-09-12T01:42:31;95131.72;;;31.28;42.89
61674;BME280;47573;43.832;5.974;2023-09-12T01:49:18;95137.75;;;31.30;42.46
61674;BME280;47573;43.832;5.974;2023-09-12T01:55:59;95133.75;;;31.41;41.63
61674;BME280;47573;43.832;5.974;2023-09-12T02:02:40;95119.56;;;31.29;42.37
61674;BME280;47573;43.832;5.974;2023-09-12T02:09:22;95114.88;;;31.30;43.02
61674;BME280;47573;43.832;5.974;2023-09-12T02:16:03;95125.31;;;31.33;42.48
61674;BME280;47573;43.832;5.974;2023-09-12T02:22:43;95114.56;;;31.31;42.48
61674;BME280;47573;43.832;5.974;2023-09-12T02:29:25;95115.31;;;31.37;42.88
61674;BME280;47573;43.832;5.974;2023-09-12T02:36:06;95105.06;;;31.37;42.68
61674;BME280;47573;43.832;5.974;2023-09-12T02:42:46;95114.47;;;31.36;42.57
61674;BME280;47573;43.832;5.974;2023-09-12T02:49:28;95112.84;;;31.35;42.75
61674;BME280;47573;43.832;5.974;2023-09-12T02:56:09;95109.88;;;31.32;42.97
61674;BME280;47573;43.832;5.974;2023-09-12T03:02:49;95115.91;;;31.34;42.64
61674;BME280;47573;43.832;5.974;2023-09-12T03:09:31;95128.34;;;31.31;43.03
61674;BME280;47573;43.832;5.974;2023-09-12T03:16:12;95123.66;;;31.32;43.11
61674;BME280;47573;43.832;5.974;2023-09-12T03:22:53;95115.19;;;31.28;43.27
61674;BME280;47573;43.832;5.974;2023-09-12T03:29:35;95121.78;;;31.27;43.40
61674;BME280;47573;43.832;5.974;2023-09-12T03:36:16;95113.00;;;31.25;42.97
61674;BME280;47573;43.832;5.974;2023-09-12T03:42:56;95116.06;;;31.24;43.29
61674;BME280;47573;43.832;5.974;2023-09-12T03:49:38;95104.81;;;31.20;43.54
61674;BME280;47573;43.832;5.974;2023-09-12T03:56:19;95114.81;;;31.16;43.31
61674;BME280;47573;43.832;5.974;2023-09-12T04:02:59;95104.22;;;31.23;43.68
61674;BME280;47573;43.832;5.974;2023-09-12T04:09:41;95116.66;;;31.21;43.67
61674;BME280;47573;43.832;5.974;2023-09-12T04:16:22;95123.00;;;31.21;43.28
61674;BME280;47573;43.832;5.974;2023-09-12T04:23:03;95145.06;;;31.21;43.36
61674;BME280;47573;43.832;5.974;2023-09-12T04:29:45;95146.25;;;31.15;43.98
61674;BME280;47573;43.832;5.974;2023-09-12T04:36:25;95155.69;;;31.14;43.83
61674;BME280;47573;43.832;5.974;2023-09-12T04:43:06;95165.25;;;31.17;43.99
61674;BME280;47573;43.832;5.974;2023-09-12T04:49:48;95166.94;;;31.18;44.09
61674;BME280;47573;43.832;5.974;2023-09-12T04:56:28;95165.25;;;31.17;44.02
61674;BME280;47573;43.832;5.974;2023-09-12T05:03:09;95171.19;;;30.68;46.34
61674;BME280;47573;43.832;5.974;2023-09-12T05:09:50;95179.75;;;29.90;49.62
61674;BME280;47573;43.832;5.974;2023-09-12T05:16:31;95177.78;;;29.62;50.14
61674;BME280;47573;43.832;5.974;2023-09-12T05:23:11;95179.13;;;29.31;50.93
61674;BME280;47573;43.832;5.974;2023-09-12T05:29:53;95178.69;;;29.19;50.40
61674;BME280;47573;43.832;5.974;2023-09-12T05:36:34;95186.25;;;28.88;50.63
61674;BME280;47573;43.832;5.974;2023-09-12T05:43:14;95187.59;;;28.91;50.36
61674;BME280;47573;43.832;5.974;2023-09-12T05:49:56;95194.09;;;29.10;48.05
61674;BME280;47573;43.832;5.974;2023-09-12T05:56:37;95193.03;;;29.01;48.26
61674;BME280;47573;43.832;5.974;2023-09-12T06:03:17;95181.81;;;29.41;44.91
61674;BME280;47573;43.832;5.974;2023-09-12T06:09:59;95184.13;;;29.24;44.95
61674;BME280;47573;43.832;5.974;2023-09-12T06:16:39;95187.53;;;29.45;44.21
61674;BME280;47573;43.832;5.974;2023-09-12T06:23:20;95192.63;;;29.27;45.16
61674;BME280;47573;43.832;5.974;2023-09-12T06:30:02;95188.03;;;29.18;45.26
61674;BME280;47573;43.832;5.974;2023-09-12T06:36:43;95211.69;;;29.09;45.42
61674;BME280;47573;43.832;5.974;2023-09-12T06:43:24;95216.69;;;29.02;52.10
61674;BME280;47573;43.832;5.974;2023-09-12T06:50:06;95210.44;;;28.91;53.70
61674;BME280;47573;43.832;5.974;2023-09-12T06:56:47;95221.59;;;29.05;49.76
61674;BME280;47573;43.832;5.974;2023-09-12T07:03:27;95203.34;;;29.29;48.50
61674;BME280;47573;43.832;5.974;2023-09-12T07:10:09;95218.72;;;29.30;45.67
61674;BME280;47573;43.832;5.974;2023-09-12T07:16:50;95229.63;;;29.50;45.61
61674;BME280;47573;43.832;5.974;2023-09-12T07:23:31;95226.16;;;29.68;50.58
61674;BME280;47573;43.832;5.974;2023-09-12T07:30:13;95237.00;;;29.93;47.01
61674;BME280;47573;43.832;5.974;2023-09-12T07:36:53;95253.78;;;29.92;48.67
61674;BME280;47573;43.832;5.974;2023-09-12T07:43:34;95253.16;;;29.61;47.21
61674;BME280;47573;43.832;5.974;2023-09-12T07:50:16;95255.84;;;29.76;45.87
61674;BME280;47573;43.832;5.974;2023-09-12T07:56:56;95261.75;;;29.93;44.83
61674;BME280;47573;43.832;5.974;2023-09-12T08:03:37;95281.38;;;30.15;45.99
61674;BME280;47573;43.832;5.974;2023-09-12T08:10:20;95283.56;;;30.18;45.78
61674;BME280;47573;43.832;5.974;2023-09-12T08:17:01;95294.44;;;30.34;45.50
61674;BME280;47573;43.832;5.974;2023-09-12T08:23:41;95287.84;;;30.35;45.64
61674;BME280;47573;43.832;5.974;2023-09-12T08:30:23;95294.66;;;30.42;45.31
61674;BME280;47573;43.832;5.974;2023-09-12T08:37:04;95285.00;;;30.45;45.27
61674;BME280;47573;43.832;5.974;2023-09-12T08:43:45;95284.41;;;30.48;45.29
61674;BME280;47573;43.832;5.974;2023-09-12T08:50:27;95288.50;;;30.50;45.23
61674;BME280;47573;43.832;5.974;2023-09-12T08:57:10;95292.63;;;30.53;44.85
61674;BME280;47573;43.832;5.974;2023-09-12T09:03:51;95294.50;;;30.57;44.61
61674;BME280;47573;43.832;5.974;2023-09-12T09:10:33;95287.59;;;30.60;44.78
61674;BME280;47573;43.832;5.974;2023-09-12T09:17:14;95286.19;;;30.62;44.55
61674;BME280;47573;43.832;5.974;2023-09-12T09:23:55;95280.59;;;30.67;44.33
61674;BME280;47573;43.832;5.974;2023-09-12T09:30:41;95284.19;;;30.68;44.18
61674;BME280;47573;43.832;5.974;2023-09-12T09:37:23;95281.34;;;30.73;44.34
61674;BME280;47573;43.832;5.974;2023-09-12T09:44:04;95276.94;;;30.77;44.06
61674;BME280;47573;43.832;5.974;2023-09-12T09:50:46;95272.75;;;30.79;44.15
61674;BME280;47573;43.832;5.974;2023-09-12T09:57:27;95275.75;;;30.83;43.87
61674;BME280;47573;43.832;5.974;2023-09-12T10:04:08;95262.53;;;30.85;43.77
61674;BME280;47573;43.832;5.974;2023-09-12T10:10:51;95261.41;;;30.86;44.11
61674;BME280;47573;43.832;5.974;2023-09-12T10:17:37;95253.59;;;30.93;43.63
61674;BME280;47573;43.832;5.974;2023-09-12T10:24:19;95253.00;;;30.96;43.67
61674;BME280;47573;43.832;5.974;2023-09-12T10:31:04;95249.44;;;30.96;43.44
61674;BME280;47573;43.832;5.974;2023-09-12T10:37:46;95249.44;;;30.96;43.62
61674;BME280;47573;43.832;5.974;2023-09-12T10:44:30;95245.50;;;31.02;43.39
61674;BME280;47573;43.832;5.974;2023-09-12T10:51:13;95239.16;;;31.01;43.64
61674;BME280;47573;43.832;5.974;2023-09-12T10:58:04;95232.50;;;31.02;43.02
61674;BME280;47573;43.832;5.974;2023-09-12T11:04:44;95233.63;;;31.01;43.08
61674;BME280;47573;43.832;5.974;2023-09-12T11:11:26;95230.78;;;31.06;41.81
61674;BME280;47573;43.832;5.974;2023-09-12T11:18:07;95235.72;;;31.09;42.99
61674;BME280;47573;43.832;5.974;2023-09-12T11:24:47;95232.94;;;32.02;41.22
61674;BME280;47573;43.832;5.974;2023-09-12T11:31:30;95234.63;;;32.17;41.44
61674;BME280;47573;43.832;5.974;2023-09-12T11:38:10;95227.94;;;32.04;41.31
61674;BME280;47573;43.832;5.974;2023-09-12T11:44:51;95221.31;;;32.05;41.49
61674;BME280;47573;43.832;5.974;2023-09-12T11:51:34;95219.59;;;32.23;41.37
61674;BME280;47573;43.832;5.974;2023-09-12T11:58:15;95225.03;;;32.28;41.39
61674;BME280;47573;43.832;5.974;2023-09-12T12:04:56;95213.16;;;32.14;41.13
61674;BME280;47573;43.832;5.974;2023-09-12T12:11:39;95209.69;;;32.22;41.41
61674;BME280;47573;43.832;5.974;2023-09-12T12:18:20;95204.56;;;32.29;41.24
61674;BME280;47573;43.832;5.974;2023-09-12T12:25:05;95199.66;;;32.26;41.17
61674;BME280;47573;43.832;5.974;2023-09-12T12:31:47;95196.59;;;32.27;41.58
61674;BME280;47573;43.832;5.974;2023-09-12T12:38:31;95192.28;;;32.35;41.05
61674;BME280;47573;43.832;5.974;2023-09-12T12:45:13;95181.22;;;32.35;41.26
61674;BME280;47573;43.832;5.974;2023-09-12T12:51:55;95175.09;;;32.38;41.12
61674;BME280;47573;43.832;5.974;2023-09-12T12:58:36;95166.72;;;32.43;41.22
61674;BME280;47573;43.832;5.974;2023-09-12T13:05:20;95174.94;;;32.48;41.25
61674;BME280;47573;43.832;5.974;2023-09-12T13:12:04;95180.44;;;32.48;41.02
61674;BME280;47573;43.832;5.974;2023-09-12T13:18:44;95171.66;;;32.46;41.17
61674;BME280;47573;43.832;5.974;2023-09-12T13:25:25;95152.72;;;32.53;41.35
61674;BME280;47573;43.832;5.974;2023-09-12T13:32:07;95152.81;;;32.62;41.02
61674;BME280;47573;43.832;5.974;2023-09-12T13:38:47;95143.56;;;32.66;41.35
61674;BME280;47573;43.832;5.974;2023-09-12T13:45:28;95146.16;;;32.76;40.99
61674;BME280;47573;43.832;5.974;2023-09-12T13:52:10;95144.31;;;32.58;41.37
61674;BME280;47573;43.832;5.974;2023-09-12T13:58:50;95141.97;;;32.65;41.37
61674;BME280;47573;43.832;5.974;2023-09-12T14:05:30;95138.78;;;32.72;41.03
61674;BME280;47573;43.832;5.974;2023-09-12T14:12:12;95146.75;;;32.73;41.39
61674;BME280;47573;43.832;5.974;2023-09-12T14:18:53;95142.25;;;32.77;41.17
61674;BME280;47573;43.832;5.974;2023-09-12T14:25:33;95129.84;;;32.88;40.95
61674;BME280;47573;43.832;5.974;2023-09-12T14:32:15;95122.66;;;32.87;41.30
61674;BME280;47573;43.832;5.974;2023-09-12T14:38:55;95133.72;;;32.87;41.32
61674;BME280;47573;43.832;5.974;2023-09-12T14:45:36;95121.53;;;32.88;41.42
61674;BME280;47573;43.832;5.974;2023-09-12T14:52:18;95111.59;;;32.87;41.01
61674;BME280;47573;43.832;5.974;2023-09-12T14:58:58;95114.06;;;32.89;41.49
61674;BME280;47573;43.832;5.974;2023-09-12T15:05:39;95103.81;;;33.03;41.20
61674;BME280;47573;43.832;5.974;2023-09-12T15:12:21;95105.00;;;33.10;41.30
61674;BME280;47573;43.832;5.974;2023-09-12T15:19:02;95099.09;;;33.03;41.18
61674;BME280;47573;43.832;5.974;2023-09-12T15:25:42;95085.63;;;33.10;41.44
61674;BME280;47573;43.832;5.974;2023-09-12T15:32:24;95079.50;;;33.13;41.37
61674;BME280;47573;43.832;5.974;2023-09-12T15:39:04;95073.44;;;33.11;41.12
61674;BME280;47573;43.832;5.974;2023-09-12T15:45:45;95067.41;;;33.09;41.46
61674;BME280;47573;43.832;5.974;2023-09-12T15:52:27;95087.78;;;33.13;41.60
61674;BME280;47573;43.832;5.974;2023-09-12T15:59:07;95083.31;;;33.04;41.83
61674;BME280;47573;43.832;5.974;2023-09-12T16:05:48;95092.94;;;33.06;41.98
61674;BME280;47573;43.832;5.974;2023-09-12T16:12:29;95095.84;;;33.01;42.05
61674;BME280;47573;43.832;5.974;2023-09-12T16:19:10;95093.75;;;32.93;41.79
61674;BME280;47573;43.832;5.974;2023-09-12T16:25:50;95103.38;;;32.96;42.10
61674;BME280;47573;43.832;5.974;2023-09-12T16:32:32;95115.88;;;32.93;41.97
61674;BME280;47573;43.832;5.974;2023-09-12T16:39:13;95124.09;;;32.98;41.91
61674;BME280;47573;43.832;5.974;2023-09-12T16:45:53;95121.41;;;32.93;41.99
61674;BME280;47573;43.832;5.974;2023-09-12T16:52:35;95130.72;;;32.97;41.70
61674;BME280;47573;43.832;5.974;2023-09-12T16:59:15;95134.22;;;32.89;42.32
61674;BME280;47573;43.832;5.974;2023-09-12T17:05:56;95154.59;;;32.93;42.26
61674;BME280;47573;43.832;5.974;2023-09-12T17:12:38;95163.66;;;32.58;42.10
61674;BME280;47573;43.832;5.974;2023-09-12T17:19:18;95163.88;;;32.48;41.56
61674;BME280;47573;43.832;5.974;2023-09-12T17:25:59;95160.34;;;32.15;42.16
61674;BME280;47573;43.832;5.974;2023-09-12T17:32:41;95159.28;;;31.98;42.55
61674;BME280;47573;43.832;5.974;2023-09-12T17:39:21;95156.41;;;31.89;42.45
61674;BME280;47573;43.832;5.974;2023-09-12T17:46:01;95158.59;;;31.73;42.38
61674;BME280;47573;43.832;5.974;2023-09-12T17:52:43;95169.19;;;31.66;43.22
61674;BME280;47573;43.832;5.974;2023-09-12T17:59:24;95171.59;;;31.54;44.03
61674;BME280;47573;43.832;5.974;2023-09-12T18:06:04;95194.59;;;31.50;44.17
61674;BME280;47573;43.832;5.974;2023-09-12T18:12:46;95210.53;;;31.34;45.02
61674;BME280;47573;43.832;5.974;2023-09-12T18:19:27;95228.19;;;31.15;45.44
61674;BME280;47573;43.832;5.974;2023-09-12T18:26:07;95226.34;;;31.10;45.50
61674;BME280;47573;43.832;5.974;2023-09-12T18:32:49;95246.41;;;31.16;45.64
61674;BME280;47573;43.832;5.974;2023-09-12T18:39:30;95257.34;;;31.21;45.91
61674;BME280;47573;43.832;5.974;2023-09-12T18:46:10;95266.28;;;31.13;45.82
61674;BME280;47573;43.832;5.974;2023-09-12T18:52:52;95273.75;;;31.12;45.76
61674;BME280;47573;43.832;5.974;2023-09-12T18:59:32;95281.16;;;30.93;46.65
61674;BME280;47573;43.832;5.974;2023-09-12T19:06:13;95292.19;;;30.93;46.23
61674;BME280;47573;43.832;5.974;2023-09-12T19:12:56;95295.53;;;30.90;46.55
61674;BME280;47573;43.832;5.974;2023-09-12T19:19:37;95309.91;;;30.87;46.14
61674;BME280;47573;43.832;5.974;2023-09-12T19:26:17;95304.19;;;30.78;46.44
61674;BME280;47573;43.832;5.974;2023-09-12T19:32:59;95306.63;;;30.85;46.43
61674;BME280;47573;43.832;5.974;2023-09-12T19:39:40;95297.22;;;30.86;45.91
61674;BME280;47573;43.832;5.974;2023-09-12T19:46:20;95291.09;;;30.65;46.50
61674;BME280;47573;43.832;5.974;2023-09-12T19:53:02;95275.84;;;30.73;46.42
61674;BME280;47573;43.832;5.974;2023-09-12T19:59:43;95270.34;;;30.73;46.77
61674;BME280;47573;43.832;5.974;2023-09-12T20:06:23;95270.84;;;30.75;46.84
61674;BME280;47573;43.832;5.974;2023-09-12T20:13:05;95265.94;;;30.72;46.72
61674;BME280;47573;43.832;5.974;2023-09-12T20:19:46;95277.50;;;30.74;46.65
61674;BME280;47573;43.832;5.974;2023-09-12T20:26:26;95289.06;;;30.76;46.50
61674;BME280;47573;43.832;5.974;2023-09-12T20:33:09;95295.13;;;30.73;46.46
61674;BME280;47573;43.832;5.974;2023-09-12T20:39:49;95295.22;;;30.68;46.34
61674;BME280;47573;43.832;5.974;2023-09-12T20:46:30;95297.47;;;30.61;46.86
61674;BME280;47573;43.832;5.974;2023-09-12T20:53:11;95288.34;;;30.65;46.93
61674;BME280;47573;43.832;5.974;2023-09-12T20:59:52;95303.28;;;30.59;46.96
61674;BME280;47573;43.832;5.974;2023-09-12T21:06:32;95310.47;;;30.60;47.38
61674;BME280;47573;43.832;5.974;2023-09-12T21:13:15;95295.91;;;30.55;47.36
61674;BME280;47573;43.832;5.974;2023-09-12T21:19:55;95283.81;;;30.51;47.51
61674;BME280;47573;43.832;5.974;2023-09-12T21:26:35;95285.72;;;30.79;46.36
61674;BME280;47573;43.832;5.974;2023-09-12T21:33:17;95284.88;;;30.55;46.84
61674;BME280;47573;43.832;5.974;2023-09-12T21:39:58;95283.81;;;30.51;46.00
61674;BME280;47573;43.832;5.974;2023-09-12T21:46:38;95273.41;;;30.48;46.11
61674;BME280;47573;43.832;5.974;2023-09-12T21:53:20;95292.16;;;30.46;46.64
61674;BME280;47573;43.832;5.974;2023-09-12T22:00:01;95301.56;;;30.40;46.29
61674;BME280;47573;43.832;5.974;2023-09-12T22:06:42;95295.50;;;30.38;46.32
61674;BME280;47573;43.832;5.974;2023-09-12T22:13:24;95312.31;;;30.41;47.17
61674;BME280;47573;43.832;5.974;2023-09-12T22:20:05;95297.19;;;30.39;47.08
61674;BME280;47573;43.832;5.974;2023-09-12T22:26:46;95305.97;;;30.41;46.85
61674;BME280;47573;43.832;5.974;2023-09-12T22:33:28;95283.44;;;30.34;47.17
61674;BME280;47573;43.832;5.974;2023-09-12T22:40:09;95280.66;;;30.39;46.82
61674;BME280;47573;43.832;5.974;2023-09-12T22:46:50;95292.81;;;30.33;47.67
61674;BME280;47573;43.832;5.974;2023-09-12T22:53:32;95289.53;;;30.31;47.78
61674;BME280;47573;43.832;5.974;2023-09-12T23:00:13;95291.16;;;30.32;47.48
61674;BME280;47573;43.832;5.974;2023-09-12T23:06:53;95260.91;;;30.27;47.65
61674;BME280;47573;43.832;5.974;2023-09-12T23:13:35;95264.56;;;30.17;48.10
61674;BME280;47573;43.832;5.974;2023-09-12T23:20:15;95254.34;;;30.23;48.09
61674;BME280;47573;43.832;5.974;2023-09-12T23:26:56;95236.06;;;30.32;48.74
61674;BME280;47573;43.832;5.974;2023-09-12T23:33:38;95241.13;;;30.19;50.22
61674;BME280;47573;43.832;5.974;2023-09-12T23:40:18;95235.69;;;30.14;50.84
61674;BME280;47573;43.832;5.974;2023-09-12T23:46:58;95210.19;;;30.33;50.18
61674;BME280;47573;43.832;5.974;2023-09-12T23:53:40;95233.28;;;30.37;49.87
